Tokachi-Obihiro Airport Obihiro JP
ICAO: RJCB
IATA:
Category: Medium
Scheduled Services:

Elevation: 505 ft
TransAlt. 18000 ft.

Airport Communications:
SAPPORO CON:128.325
TWR:118.7

RJCB Zoom In..

If you have problems with the map follow the link
https://www.worldairports.se/pages/airport.php?
ICAO=RJCB

Runways:

(A) RW 17 length 8202 ft width 148 ft
---- / hdg 168

(B) RW 35 length 8202 ft width 148 ft
ILS 111.70 / hdg 348

Location; RJCB
Day. 17 / Time. 03.00 Zulu
* QNH: 1002
* Temperature: 02° c. 35.6°f.
* Wind from: 330° Speed 04 kn.
Dewpoint: -00° c.
Visibility: 10 km or more.
Clouds: Few 3000 ft.
Clouds: Scattered 5000 ft.

RJCB 170300Z 33004KT 9999 FEW030 SCT050 02/M00 Q1002


Wind From 330°
Speed 04 kn.

 
 
jpsmedia.com for Web Design worldairports.se 2018   terms of use